메인 페이지
METAR-TAF:

METAR-TAF

공항 :

멘도사, 아르헨티나

고바노르 프란시스코 가브리엘리 국제공항

위도: 32-50S, 경도: 068-47W, 고도: 705m

현재 날씨관측

예보는 1 시간 1분 전, 18:00시(UTC)에 발표되었습니다.
5kt
온도 25°C
습도 47%
기압 1014 hPa
시정 10km 이상
고도 4500ft 상공 구름 보통

METAR: SAME 161800Z 18005KT 9999 SCT045 25/13 Q1014

시각: 16:01 (19:01 UTC)

예보

예보는 2 시간 1분 전, 17:00시(UTC)에 발표되었습니다.
예보 대상 시간: 16일 18시부터 17일 18시까지 (UTC)
남동5kt
시정 10km 이상
고도 4000ft 상공 구름 조금
고도 4000ft 상공 구름 조금, 타워링 적운.
전환 중
16일 21시부터 16일 23시까지 (UTC)
남동10kt
시정: 6000m
고도 4000ft 상공 구름 많음
고도 5000ft 상공 구름 조금, 적란운.
뇌우, 비

TAF: SAME 161700Z 1618/1718 14005KT 9999 FEW040 FEW040TCU TX28/1620Z TN18/1710Z BECMG 1621/1623 14010KT 6000 TSRA BKN040 FEW050CB

4,000개 이상의 공항 관측 자료 및 예보 (METAR 및 TAF 보고).

지도상에서 검색 가능한 기상관측소가 노란 점과 빨간 점으로 표시되어 있습니다.

기상관측소 명을 보려면 표시 위로 마우스를 이동하세요.

날씨 관측과 예보를 보려면 클릭하세요.

지도 변경 : 확대하려면 엑스 표시가 있는 녹색 버튼, 축소하려면 빼기 표시가 있는 녹색 버튼, 다음 페이지의 지도를 보려면 녹색 화살표를 클릭하세요.


METAR-TAF: